Time;durP1;ratioP1;P1;durP2;ratioP2;P2;SDS_P1;SDS_P2;PMS_P1;PMS_P2;Temp;Humidity;BMP_temperature;BMP_pressure;BME280_temperature;BME280_humidity;BME280_pressure;Samples;Min_cycle;Max_cycle;Signal;HPM_P1;HPM_P2
2023/09/09 00:00:51;;;;;;;7.40;5.70;;;;;;;17.82;75.25;100966.84;7381544;19;20375;-76
2023/09/09 00:03:19;;;;;;;7.22;6.10;;;;;;;17.77;75.49;100965.81;7380675;19;20377;-76
2023/09/09 00:05:46;;;;;;;11.32;5.85;;;;;;;17.72;75.66;100958.41;7380023;19;20419;-76
2023/09/09 00:08:16;;;;;;;10.80;5.90;;;;;;;17.67;76.26;100958.22;7379649;19;20368;-76
2023/09/09 00:10:43;;;;;;;10.23;6.10;;;;;;;17.62;76.33;100955.38;7371893;19;20352;-76
2023/09/09 00:13:10;;;;;;;7.63;5.97;;;;;;;17.56;76.88;100953.56;7377707;19;21003;-76
2023/09/09 00:15:37;;;;;;;8.20;6.05;;;;;;;17.50;77.40;100958.72;7381456;19;20361;-77
2023/09/09 00:18:04;;;;;;;8.77;6.53;;;;;;;17.45;78.11;100960.44;7380411;19;20368;-76
2023/09/09 00:20:36;;;;;;;8.35;6.15;;;;;;;17.39;78.32;100951.38;7380944;19;20396;-76
2023/09/09 00:23:07;;;;;;;9.10;6.95;;;;;;;17.36;78.37;100951.78;7381783;19;20671;-76
2023/09/09 00:25:36;;;;;;;10.35;6.60;;;;;;;17.32;78.96;100955.94;7377107;19;20360;-76
2023/09/09 00:28:03;;;;;;;9.30;6.45;;;;;;;17.27;79.24;100953.06;7374204;19;20378;-76
2023/09/09 00:30:30;;;;;;;11.95;6.68;;;;;;;17.22;79.20;100948.34;7377535;19;20365;-77
2023/09/09 00:32:58;;;;;;;9.15;6.95;;;;;;;17.16;79.27;100943.81;7380534;19;20377;-76
2023/09/09 00:35:26;;;;;;;10.18;6.97;;;;;;;17.10;79.73;100942.81;7380939;19;20360;-77
2023/09/09 00:37:54;;;;;;;7.95;7.15;;;;;;;17.05;79.93;100948.00;7378233;19;20360;-76
2023/09/09 00:40:21;;;;;;;11.07;6.70;;;;;;;17.01;79.93;100944.09;7377046;19;20352;-76
2023/09/09 00:42:48;;;;;;;8.45;6.70;;;;;;;16.99;80.23;100948.84;7378231;19;20372;-77
2023/09/09 00:45:15;;;;;;;9.25;7.00;;;;;;;16.96;80.21;100945.75;7380511;19;20400;-76
2023/09/09 00:47:42;;;;;;;11.20;7.95;;;;;;;16.92;80.39;100940.81;7377706;19;20348;-77
2023/09/09 00:50:11;;;;;;;12.07;7.70;;;;;;;16.90;80.29;100947.44;7387344;19;20345;-76
2023/09/09 00:52:40;;;;;;;9.55;7.38;;;;;;;16.89;80.70;100948.44;7385080;19;20356;-76
2023/09/09 00:55:08;;;;;;;9.30;7.10;;;;;;;16.86;80.74;100938.97;7382047;19;20448;-76
2023/09/09 00:57:35;;;;;;;7.30;6.60;;;;;;;16.77;81.20;100942.91;7387752;19;20365;-76
2023/09/09 01:00:09;;;;;;;9.25;6.80;;;;;;;16.69;80.79;100943.13;7386135;19;20370;-76
2023/09/09 01:02:40;;;;;;;8.35;6.45;;;;;;;16.64;80.78;100948.25;7385006;19;20353;-76
2023/09/09 01:05:09;;;;;;;8.23;6.20;;;;;;;16.60;80.72;100936.34;7382076;19;20717;-76
2023/09/09 01:07:44;;;;;;;9.30;6.07;;;;;;;16.59;80.99;100935.50;7381005;19;20426;-76
2023/09/09 01:10:12;;;;;;;7.97;5.10;;;;;;;16.60;81.11;100939.03;7383796;19;20490;-76
2023/09/09 01:12:41;;;;;;;10.18;6.22;;;;;;;16.64;81.52;100932.19;7384346;19;20360;-76
2023/09/09 01:15:09;;;;;;;10.73;6.00;;;;;;;16.69;81.54;100935.09;7382160;19;20376;-76
2023/09/09 01:17:36;;;;;;;8.73;5.78;;;;;;;16.77;81.61;100939.41;7386145;19;20353;-76
2023/09/09 01:20:09;;;;;;;11.43;5.95;;;;;;;16.82;81.64;100932.41;7381963;19;20455;-76
2023/09/09 01:22:36;;;;;;;9.13;5.68;;;;;;;16.89;81.72;100935.06;7378926;19;20332;-76
2023/09/09 01:25:07;;;;;;;9.93;5.70;;;;;;;16.95;81.78;100939.56;7383155;19;20476;-76
2023/09/09 01:27:33;;;;;;;9.40;5.87;;;;;;;16.98;81.63;100936.47;7380350;19;20356;-76
2023/09/09 01:30:00;;;;;;;6.33;5.60;;;;;;;17.01;81.71;100937.91;7382542;19;20361;-76
2023/09/09 01:32:27;;;;;;;14.40;6.00;;;;;;;17.05;81.48;100939.13;7384543;19;20356;-76
2023/09/09 01:34:55;;;;;;;12.50;6.00;;;;;;;17.09;81.43;100935.00;7384308;19;20911;-77
2023/09/09 01:37:22;;;;;;;8.27;5.68;;;;;;;17.15;81.36;100938.66;7383336;19;20907;-76
2023/09/09 01:39:50;;;;;;;8.02;5.78;;;;;;;17.18;81.01;100939.06;7385263;19;20485;-76
2023/09/09 01:42:17;;;;;;;10.35;6.22;;;;;;;17.20;81.17;100933.50;7376552;19;20329;-76
2023/09/09 01:44:45;;;;;;;7.93;5.82;;;;;;;17.18;81.09;100938.25;7385812;19;20368;-76
2023/09/09 01:47:15;;;;;;;8.93;6.30;;;;;;;17.20;80.84;100936.19;7380522;19;20402;-76
2023/09/09 01:49:43;;;;;;;7.25;5.80;;;;;;;17.20;80.67;100934.31;7384963;19;20374;-76
2023/09/09 01:52:10;;;;;;;8.98;6.00;;;;;;;17.22;80.74;100931.44;7386370;19;20405;-76
2023/09/09 01:54:37;;;;;;;9.32;5.97;;;;;;;17.22;80.79;100926.09;7382710;19;21199;-76
2023/09/09 01:57:04;;;;;;;7.72;5.78;;;;;;;17.20;80.36;100928.16;7382469;19;20444;-76
2023/09/09 01:59:30;;;;;;;8.00;5.55;;;;;;;17.16;80.63;100930.41;7381087;19;20341;-76
2023/09/09 02:01:57;;;;;;;10.05;5.55;;;;;;;17.10;80.59;100926.72;7379603;19;20365;-76
2023/09/09 02:04:24;;;;;;;8.40;6.10;;;;;;;17.08;80.78;100928.78;7383157;19;20400;-76
2023/09/09 02:06:51;;;;;;;10.30;6.47;;;;;;;17.10;80.89;100931.28;7386332;19;20365;-76
2023/09/09 02:09:18;;;;;;;8.10;6.10;;;;;;;17.08;80.52;100919.94;7384261;19;20890;-76
2023/09/09 02:11:44;;;;;;;9.70;5.78;;;;;;;17.07;80.72;100921.81;7377761;19;20435;-76
2023/09/09 02:14:11;;;;;;;9.35;5.68;;;;;;;17.08;80.67;100927.97;7379551;19;20436;-77
2023/09/09 02:16:38;;;;;;;8.88;6.00;;;;;;;17.06;80.27;100924.69;7378502;19;21003;-76
2023/09/09 02:19:05;;;;;;;8.10;5.68;;;;;;;17.05;80.61;100921.19;7379404;19;20457;-76
2023/09/09 02:21:32;;;;;;;9.48;5.82;;;;;;;17.04;80.57;100927.59;7375833;19;20428;-76
2023/09/09 02:23:59;;;;;;;7.50;5.50;;;;;;;16.99;80.34;100923.91;7381261;19;20356;-76
2023/09/09 02:26:26;;;;;;;10.23;5.35;;;;;;;16.95;80.23;100926.16;7380801;19;20895;-76
2023/09/09 02:28:53;;;;;;;7.45;5.32;;;;;;;16.92;80.48;100930.09;7384061;19;20351;-76
2023/09/09 02:31:20;;;;;;;6.38;5.15;;;;;;;16.91;80.55;100928.44;7383763;19;20370;-77
2023/09/09 02:33:47;;;;;;;8.80;5.40;;;;;;;16.86;80.00;100927.44;7384515;19;20489;-77
2023/09/09 02:36:13;;;;;;;8.02;5.07;;;;;;;16.81;80.06;100922.72;7378704;19;20372;-76
2023/09/09 02:38:40;;;;;;;6.68;5.13;;;;;;;16.78;80.16;100924.97;7379894;19;20836;-76
2023/09/09 02:41:07;;;;;;;8.60;5.63;;;;;;;16.76;80.39;100924.34;7380677;19;20403;-76
2023/09/09 02:43:36;;;;;;;7.40;5.45;;;;;;;16.75;80.42;100928.88;7381905;19;20452;-76
2023/09/09 02:46:04;;;;;;;7.00;5.10;;;;;;;16.75;80.32;100922.72;7378489;19;20753;-76
2023/09/09 02:48:31;;;;;;;7.32;5.60;;;;;;;16.74;80.26;100915.69;7382013;19;20904;-76
2023/09/09 02:50:58;;;;;;;9.43;5.85;;;;;;;16.71;80.54;100925.78;7383867;19;20754;-76
2023/09/09 02:53:24;;;;;;;9.30;5.22;;;;;;;16.70;80.67;100917.97;7381799;19;20348;-77
2023/09/09 02:55:51;;;;;;;7.20;5.77;;;;;;;16.73;80.82;100917.56;7377430;19;20461;-77
2023/09/09 02:58:18;;;;;;;6.50;5.50;;;;;;;16.75;80.97;100917.34;7381915;19;20380;-76
2023/09/09 03:00:45;;;;;;;7.13;5.88;;;;;;;16.74;81.46;100915.69;7380755;19;20360;-76
2023/09/09 03:03:12;;;;;;;7.55;6.40;;;;;;;16.77;81.20;100915.28;7383818;19;20356;-76
2023/09/09 03:05:39;;;;;;;7.40;5.57;;;;;;;16.74;81.50;100911.16;7381267;19;20368;-76
2023/09/09 03:08:06;;;;;;;6.80;5.72;;;;;;;16.74;81.38;100910.34;7381013;19;20356;-76
2023/09/09 03:10:33;;;;;;;8.38;5.97;;;;;;;16.71;81.76;100917.75;7379003;19;20357;-76
2023/09/09 03:13:00;;;;;;;7.35;5.75;;;;;;;16.70;81.92;100910.78;7380018;19;20367;-76
2023/09/09 03:15:27;;;;;;;8.70;5.82;;;;;;;16.70;82.00;100910.78;7376580;19;20348;-77
2023/09/09 03:17:53;;;;;;;8.43;6.00;;;;;;;16.67;81.96;100905.81;7380372;19;20352;-77
2023/09/09 03:20:21;;;;;;;11.50;6.50;;;;;;;16.63;82.07;100909.94;7381922;19;21021;-77
2023/09/09 03:22:51;;;;;;;9.73;5.60;;;;;;;16.59;82.56;100908.72;7382062;19;20923;-76
2023/09/09 03:25:18;;;;;;;7.18;5.75;;;;;;;16.57;82.73;100902.75;7379171;19;20385;-76
2023/09/09 03:27:44;;;;;;;7.78;5.95;;;;;;;16.54;82.96;100900.50;7379380;19;20353;-76
2023/09/09 03:30:12;;;;;;;7.50;5.55;;;;;;;16.51;83.05;100911.59;7380229;19;20367;-76
2023/09/09 03:32:38;;;;;;;7.53;6.10;;;;;;;16.48;83.17;100909.38;7375210;19;20348;-76
2023/09/09 03:35:06;;;;;;;8.23;6.00;;;;;;;16.45;83.34;100904.44;7378092;19;20356;-76
2023/09/09 03:37:33;;;;;;;8.98;6.15;;;;;;;16.44;83.52;100903.59;7379535;19;20353;-77
2023/09/09 03:40:00;;;;;;;8.48;5.80;;;;;;;16.45;83.59;100902.56;7380509;19;20376;-76
2023/09/09 03:42:27;;;;;;;8.43;5.70;;;;;;;16.42;83.23;100902.16;7377267;19;20356;-77
2023/09/09 03:44:54;;;;;;;7.00;5.80;;;;;;;16.40;83.53;100902.38;7382423;19;20365;-76
2023/09/09 03:47:21;;;;;;;9.15;6.20;;;;;;;16.38;84.13;100901.75;7379108;19;20376;-76
2023/09/09 03:49:50;;;;;;;7.80;5.60;;;;;;;16.35;83.60;100902.19;7377703;19;20372;-76
2023/09/09 03:52:17;;;;;;;8.17;5.87;;;;;;;16.34;83.88;100899.69;7379900;19;20378;-76
2023/09/09 03:54:44;;;;;;;8.63;5.90;;;;;;;16.35;83.97;100901.34;7378833;19;20529;-76
2023/09/09 03:57:11;;;;;;;9.60;5.97;;;;;;;16.34;83.96;100905.88;7379028;19;20347;-76
2023/09/09 03:59:40;;;;;;;8.88;5.82;;;;;;;16.32;83.85;100905.28;7380219;19;20908;-76
2023/09/09 04:02:07;;;;;;;8.60;6.07;;;;;;;16.31;83.93;100903.63;7379375;19;20352;-76
2023/09/09 04:04:34;;;;;;;9.80;5.88;;;;;;;16.28;83.94;100907.53;7382136;19;20657;-76
2023/09/09 04:07:01;;;;;;;8.57;6.03;;;;;;;16.26;83.90;100908.78;7377321;19;20385;-76
2023/09/09 04:09:28;;;;;;;11.65;6.13;;;;;;;16.25;84.25;100907.13;7376785;19;20440;-77
2023/09/09 04:11:56;;;;;;;9.23;5.80;;;;;;;16.24;83.86;100917.00;7373487;19;20613;-77
2023/09/09 04:14:23;;;;;;;7.10;5.95;;;;;;;16.23;84.01;100914.53;7379049;19;20448;-76
2023/09/09 04:16:49;;;;;;;6.68;5.60;;;;;;;16.22;83.79;100913.72;7380381;19;20380;-76
2023/09/09 04:19:16;;;;;;;11.53;6.53;;;;;;;16.22;83.95;100923.59;7380808;19;20615;-77
2023/09/09 04:21:43;;;;;;;8.48;5.43;;;;;;;16.21;83.79;100917.41;7379135;19;20337;-77
2023/09/09 04:24:10;;;;;;;7.50;5.80;;;;;;;16.21;83.90;100916.59;7387169;19;20349;-76
2023/09/09 04:26:37;;;;;;;8.65;6.03;;;;;;;16.23;84.03;100926.06;7378983;19;21128;-76
2023/09/09 04:29:04;;;;;;;7.97;5.60;;;;;;;16.24;83.81;100911.66;7375258;19;20423;-76
2023/09/09 04:31:31;;;;;;;7.15;5.63;;;;;;;16.23;83.89;100917.22;7383679;19;20383;-76
2023/09/09 04:33:58;;;;;;;7.13;5.53;;;;;;;16.22;84.03;100919.06;7387875;19;20675;-76
2023/09/09 04:36:25;;;;;;;8.43;5.25;;;;;;;16.23;84.19;100914.53;7387492;19;20880;-76
2023/09/09 04:38:52;;;;;;;10.35;6.20;;;;;;;16.22;83.60;100913.72;7389201;19;20408;-76
2023/09/09 04:41:20;;;;;;;7.13;5.30;;;;;;;16.22;83.67;100911.03;7385167;19;20373;-76
2023/09/09 04:43:46;;;;;;;7.35;5.50;;;;;;;16.23;83.99;100920.72;7383661;19;20356;-77
2023/09/09 04:46:13;;;;;;;7.22;5.38;;;;;;;16.25;83.87;100913.28;7388279;19;20364;-76
2023/09/09 04:48:41;;;;;;;7.30;5.55;;;;;;;16.27;83.89;100919.25;7382303;19;21320;-76
2023/09/09 04:51:08;;;;;;;9.53;6.03;;;;;;;16.31;84.00;100917.00;7387560;19;20369;-76
2023/09/09 04:53:35;;;;;;;9.80;6.00;;;;;;;16.33;83.68;100919.47;7387043;19;20353;-76
2023/09/09 04:56:03;;;;;;;7.97;5.57;;;;;;;16.36;83.63;100913.69;7383796;19;20382;-76
2023/09/09 04:58:31;;;;;;;7.68;5.93;;;;;;;16.39;83.44;100924.00;7388010;19;20356;-77
2023/09/09 05:00:58;;;;;;;8.60;5.73;;;;;;;16.43;83.65;100917.22;7380694;19;20339;-76
2023/09/09 05:03:25;;;;;;;6.63;5.63;;;;;;;16.45;83.22;100925.88;7385245;19;20344;-77
2023/09/09 05:05:52;;;;;;;7.65;5.88;;;;;;;16.46;83.39;100916.78;7385955;19;20789;-76
2023/09/09 05:08:19;;;;;;;7.75;5.65;;;;;;;16.49;83.17;100914.53;7385044;19;20372;-76
2023/09/09 05:10:46;;;;;;;8.02;6.03;;;;;;;16.51;83.21;100922.31;7382681;19;20348;-77
2023/09/09 05:13:12;;;;;;;10.05;6.15;;;;;;;16.52;83.18;100910.59;7386102;19;20444;-76
2023/09/09 05:15:39;;;;;;;12.18;6.28;;;;;;;16.55;83.29;100923.56;7385985;19;20869;-76
2023/09/09 05:18:06;;;;;;;9.13;6.03;;;;;;;16.58;83.34;100916.97;7387086;19;20339;-76
2023/09/09 05:20:33;;;;;;;7.07;5.60;;;;;;;16.61;83.34;100921.91;7381456;19;20423;-76
2023/09/09 05:23:00;;;;;;;11.30;6.38;;;;;;;16.66;83.66;100924.75;7388319;19;20336;-76
2023/09/09 05:25:27;;;;;;;8.90;5.80;;;;;;;16.71;83.40;100924.97;7384781;19;20801;-76
2023/09/09 05:27:54;;;;;;;7.72;6.05;;;;;;;16.76;83.30;100922.47;7386843;19;20363;-76
2023/09/09 05:30:21;;;;;;;7.40;6.00;;;;;;;16.81;83.38;100927.25;7389783;19;20328;-76
2023/09/09 05:32:48;;;;;;;8.27;5.60;;;;;;;16.87;82.89;100926.41;7384673;19;20361;-76
2023/09/09 05:35:15;;;;;;;8.68;5.80;;;;;;;16.91;83.02;100922.25;7387385;19;20360;-76
2023/09/09 05:37:45;;;;;;;9.55;6.22;;;;;;;17.08;83.20;100927.97;7386964;19;20392;-76
2023/09/09 05:40:12;;;;;;;10.68;6.13;;;;;;;17.40;82.97;100925.34;7383944;19;20377;-76
2023/09/09 05:42:39;;;;;;;9.02;6.15;;;;;;;17.55;81.88;100927.75;7386561;19;20392;-76
2023/09/09 05:45:11;;;;;;;9.38;6.00;;;;;;;17.62;81.43;100932.06;7385122;19;20432;-76
2023/09/09 05:47:38;;;;;;;8.80;6.00;;;;;;;17.70;80.82;100939.84;7385821;19;20377;-76
2023/09/09 05:50:07;;;;;;;7.22;5.40;;;;;;;17.80;80.56;100935.84;7384932;19;20423;-76
2023/09/09 05:52:34;;;;;;;7.60;5.80;;;;;;;17.88;80.01;100938.31;7384642;19;20324;-76
2023/09/09 05:55:02;;;;;;;9.55;5.60;;;;;;;17.97;79.95;100937.00;7384979;19;20360;-76
2023/09/09 05:57:32;;;;;;;7.75;5.68;;;;;;;18.07;79.52;100947.25;7385226;19;20336;-76
2023/09/09 05:59:59;;;;;;;8.05;5.28;;;;;;;18.19;79.37;100939.31;7385927;19;20358;-76
2023/09/09 06:02:26;;;;;;;7.53;5.03;;;;;;;18.30;79.02;100934.06;7384629;19;20377;-76
2023/09/09 06:04:53;;;;;;;7.80;5.37;;;;;;;18.39;78.52;100939.16;7388770;19;20376;-76
2023/09/09 06:07:21;;;;;;;6.97;5.00;;;;;;;18.50;78.26;100938.41;7383292;19;20867;-76
2023/09/09 06:09:47;;;;;;;7.72;4.82;;;;;;;18.60;77.97;100936.03;7387931;19;20439;-76
2023/09/09 06:12:14;;;;;;;7.23;5.53;;;;;;;18.73;77.55;100935.09;7385790;19;20875;-76
2023/09/09 06:14:41;;;;;;;9.00;5.80;;;;;;;18.83;77.37;100934.59;7385785;19;20364;-76
2023/09/09 06:17:08;;;;;;;6.93;4.93;;;;;;;18.96;76.88;100931.75;7380886;19;20372;-76
2023/09/09 06:19:35;;;;;;;8.77;4.93;;;;;;;19.08;76.50;100935.34;7385137;19;20367;-76
2023/09/09 06:22:02;;;;;;;7.20;4.93;;;;;;;19.22;76.74;100945.94;7381074;19;21064;-76
2023/09/09 06:24:29;;;;;;;8.10;4.90;;;;;;;19.34;76.10;100944.94;7383352;19;20927;-76
2023/09/09 06:26:56;;;;;;;7.63;4.72;;;;;;;19.48;75.62;100945.56;7385808;19;20332;-76
2023/09/09 06:29:23;;;;;;;7.45;5.10;;;;;;;19.61;75.42;100951.81;7384561;19;20344;-76
2023/09/09 06:31:50;;;;;;;7.68;5.28;;;;;;;19.72;74.52;100938.44;7384755;19;20377;-76
2023/09/09 06:34:17;;;;;;;6.40;4.82;;;;;;;19.85;74.09;100945.50;7381515;19;20332;-76
2023/09/09 06:36:44;;;;;;;8.32;4.93;;;;;;;19.97;73.76;100942.81;7380747;19;20383;-76
2023/09/09 06:39:11;;;;;;;10.68;5.20;;;;;;;20.11;75.94;100946.97;7383305;19;20360;-77
2023/09/09 06:41:38;;;;;;;11.48;6.03;;;;;;;20.52;77.09;100944.41;7379325;19;20344;-76
2023/09/09 06:44:05;;;;;;;9.82;5.72;;;;;;;20.94;76.41;100941.56;7381601;19;20340;-76
2023/09/09 06:46:32;;;;;;;7.33;4.80;;;;;;;21.32;73.96;100950.97;7386613;19;20467;-76
2023/09/09 06:48:59;;;;;;;9.77;5.10;;;;;;;21.53;70.69;100953.03;7385653;19;20353;-76
2023/09/09 06:51:25;;;;;;;8.55;4.90;;;;;;;21.64;72.07;100947.81;7386717;19;20352;-76
2023/09/09 06:53:52;;;;;;;8.27;4.70;;;;;;;21.94;70.33;100955.63;7383530;19;20353;-76
2023/09/09 06:56:19;;;;;;;6.13;4.63;;;;;;;22.02;68.15;100959.81;7379813;19;20364;-76
2023/09/09 06:58:46;;;;;;;6.55;4.75;;;;;;;22.22;68.78;100957.44;7378229;19;20342;-76
2023/09/09 07:01:13;;;;;;;7.60;4.93;;;;;;;22.48;67.73;100960.56;7379988;19;20380;-76
2023/09/09 07:03:41;;;;;;;6.10;4.60;;;;;;;22.73;67.12;100960.91;7389650;19;20377;-76
2023/09/09 07:06:08;;;;;;;7.10;4.70;;;;;;;22.89;65.42;100959.25;7382232;19;20454;-76
2023/09/09 07:08:39;;;;;;;7.55;4.75;;;;;;;22.97;63.96;100956.13;7380691;19;20364;-76
2023/09/09 07:11:06;;;;;;;6.57;4.63;;;;;;;22.97;63.63;100949.88;7379384;19;22113;-76
2023/09/09 07:13:33;;;;;;;7.27;4.47;;;;;;;23.01;64.42;100959.16;7382555;19;20893;-76
2023/09/09 07:16:00;;;;;;;6.32;4.65;;;;;;;23.17;64.53;100952.06;7382224;19;20712;-76
2023/09/09 07:18:26;;;;;;;6.95;4.25;;;;;;;23.36;63.86;100957.94;7380449;19;20369;-76
2023/09/09 07:20:56;;;;;;;7.25;4.53;;;;;;;23.50;63.19;100958.34;7382835;19;20373;-76
2023/09/09 07:23:23;;;;;;;6.70;4.00;;;;;;;23.63;62.45;100962.56;7386429;19;20336;-76
2023/09/09 07:25:50;;;;;;;5.35;4.20;;;;;;;23.65;61.95;100958.50;7380633;19;20385;-77
2023/09/09 07:28:17;;;;;;;5.72;3.97;;;;;;;23.64;61.05;100964.19;7387211;19;20979;-76
2023/09/09 07:30:44;;;;;;;8.17;3.80;;;;;;;23.63;61.45;100954.44;7379981;19;20394;-76
2023/09/09 07:33:11;;;;;;;6.35;3.90;;;;;;;23.65;61.91;100960.41;7394254;19;20328;-76
2023/09/09 07:35:38;;;;;;;5.20;3.60;;;;;;;23.68;62.03;100959.91;7394249;19;20348;-76
2023/09/09 07:38:06;;;;;;;5.93;3.40;;;;;;;23.79;61.96;100957.06;7395693;19;20373;-76
2023/09/09 07:40:33;;;;;;;4.50;3.50;;;;;;;23.90;61.36;100963.38;7387014;19;20356;-76
2023/09/09 07:43:01;;;;;;;5.38;3.75;;;;;;;24.01;60.62;100962.41;7392368;19;20348;-76
2023/09/09 07:45:28;;;;;;;4.63;3.42;;;;;;;24.11;61.08;100966.28;7387639;19;20843;-76
2023/09/09 07:47:56;;;;;;;5.63;3.40;;;;;;;24.24;60.51;100973.97;7387672;19;20379;-77
2023/09/09 07:50:23;;;;;;;5.47;3.20;;;;;;;24.37;60.16;100973.50;7393781;19;20364;-77
2023/09/09 07:52:50;;;;;;;4.60;3.42;;;;;;;24.53;59.22;100970.94;7391586;19;20722;-77
2023/09/09 07:55:17;;;;;;;6.15;3.65;;;;;;;24.67;59.32;100966.69;7391282;19;20373;-77
2023/09/09 07:57:43;;;;;;;5.50;3.53;;;;;;;24.74;58.47;100961.03;7388580;19;20364;-77
2023/09/09 08:00:11;;;;;;;4.38;3.20;;;;;;;24.76;58.47;100964.31;7388494;19;20666;-76
2023/09/09 08:02:37;;;;;;;4.13;2.90;;;;;;;24.82;57.85;100965.94;7391990;19;20348;-76
2023/09/09 08:05:06;;;;;;;4.85;3.70;;;;;;;24.80;57.99;100966.22;7387385;19;20366;-76
2023/09/09 08:07:33;;;;;;;6.68;3.35;;;;;;;24.78;58.27;100971.09;7391668;19;20365;-76
2023/09/09 08:10:00;;;;;;;7.00;4.47;;;;;;;24.80;58.10;100968.94;7388700;19;20344;-77
2023/09/09 08:12:27;;;;;;;4.95;3.03;;;;;;;24.80;57.54;100971.66;7389422;19;20375;-77
2023/09/09 08:15:09;;;;;;;7.93;3.75;;;;;;;24.76;57.54;100969.75;7390058;19;20348;-76
2023/09/09 08:17:37;;;;;;;4.55;3.75;;;;;;;24.73;57.86;100972.97;7389786;19;20364;-77
2023/09/09 08:20:07;;;;;;;12.35;8.30;;;;;;;24.77;58.96;100977.59;7391488;19;20390;-77
2023/09/09 08:22:34;;;;;;;5.13;3.30;;;;;;;24.85;58.63;100968.16;7389714;19;20317;-77
2023/09/09 08:25:02;;;;;;;18.20;16.30;;;;;;;25.00;59.23;100979.06;7389393;19;20344;-77
2023/09/09 08:27:29;;;;;;;5.28;3.50;;;;;;;25.08;57.69;100977.75;7391668;19;20356;-77
2023/09/09 08:29:57;;;;;;;5.78;3.42;;;;;;;25.12;57.31;100973.44;7390673;19;20424;-77
2023/09/09 08:32:24;;;;;;;5.07;3.47;;;;;;;25.21;57.88;100976.47;7390027;19;20715;-77
2023/09/09 08:34:54;;;;;;;5.90;3.40;;;;;;;25.30;56.59;100965.91;7380687;19;20819;-77
2023/09/09 08:37:21;;;;;;;5.65;3.42;;;;;;;25.40;56.76;100974.09;7380280;19;20480;-77
2023/09/09 08:39:53;;;;;;;5.33;3.07;;;;;;;25.56;57.13;100966.78;7383332;19;20341;-78
2023/09/09 08:42:58;;;;;;;18.03;10.00;;;;;;;25.68;56.38;100978.22;7389659;19;20934;-77
2023/09/09 08:45:41;;;;;;;14.52;12.35;;;;;;;25.79;55.99;100977.16;7385035;19;20364;-77
2023/09/09 08:48:13;;;;;;;7.95;4.70;;;;;;;25.91;55.91;100979.66;7389740;19;20395;-77
2023/09/09 08:50:40;;;;;;;5.30;3.42;;;;;;;25.99;55.91;100981.00;7390002;19;20357;-78
2023/09/09 08:53:12;;;;;;;5.88;3.90;;;;;;;26.13;56.30;100982.09;7388465;19;20353;-78
2023/09/09 08:55:40;;;;;;;6.90;3.42;;;;;;;26.23;54.61;100975.84;7378008;19;20375;-78
2023/09/09 08:58:08;;;;;;;4.40;3.20;;;;;;;26.37;55.25;100982.38;7391672;19;20703;-78
2023/09/09 09:00:37;;;;;;;6.90;3.80;;;;;;;26.51;54.53;100984.50;7384931;19;20434;-78
2023/09/09 09:03:04;;;;;;;4.88;3.30;;;;;;;26.69;54.90;100977.69;7388616;19;20344;-78
2023/09/09 09:05:33;;;;;;;5.47;3.20;;;;;;;26.83;54.20;100990.44;7389619;19;20458;-78
2023/09/09 09:08:00;;;;;;;4.93;3.20;;;;;;;26.91;53.97;100974.66;7392186;19;20376;-78
2023/09/09 09:10:27;;;;;;;5.25;3.25;;;;;;;27.05;53.26;100989.28;7394296;19;20373;-77
2023/09/09 09:12:54;;;;;;;4.10;3.40;;;;;;;27.22;53.64;100978.91;7397013;19;20923;-78
2023/09/09 09:15:21;;;;;;;6.43;3.38;;;;;;;27.28;52.77;100978.88;7392945;19;20360;-77
2023/09/09 09:17:49;;;;;;;7.15;3.30;;;;;;;27.38;52.55;100979.63;7389318;19;20363;-77
2023/09/09 09:20:26;;;;;;;5.47;3.20;;;;;;;27.59;53.28;100974.88;7398230;19;20361;-77
2023/09/09 09:23:00;;;;;;;6.57;3.20;;;;;;;27.77;52.94;100973.38;7393651;19;20378;-77
2023/09/09 09:25:28;;;;;;;7.25;3.50;;;;;;;27.92;51.19;100977.94;7392708;19;20384;-78
2023/09/09 09:27:58;;;;;;;4.20;3.15;;;;;;;28.05;50.58;100973.75;7390099;19;21566;-77
2023/09/09 09:30:26;;;;;;;4.45;2.90;;;;;;;28.19;50.60;100968.44;7387750;19;20347;-78
2023/09/09 09:32:55;;;;;;;4.30;3.15;;;;;;;28.26;49.29;100971.66;7385435;19;20390;-78
2023/09/09 09:35:32;;;;;;;5.00;3.13;;;;;;;28.34;48.88;100965.56;7393555;19;20368;-78
2023/09/09 09:38:09;;;;;;;6.15;3.13;;;;;;;28.42;48.92;100967.69;7388645;19;20364;-77
2023/09/09 09:40:39;;;;;;;6.45;3.13;;;;;;;28.54;48.69;100975.53;7390273;19;20376;-77
2023/09/09 09:43:17;;;;;;;5.00;3.10;;;;;;;28.64;48.08;100974.56;7394715;19;20357;-77
2023/09/09 09:45:44;;;;;;;5.07;2.83;;;;;;;28.79;48.17;100973.59;7393220;19;20364;-77
2023/09/09 09:48:24;;;;;;;4.32;3.00;;;;;;;28.93;46.47;100976.44;7393893;19;20915;-77
2023/09/09 09:50:52;;;;;;;4.72;2.65;;;;;;;29.03;45.29;100970.84;7392925;19;20405;-77
2023/09/09 09:53:19;;;;;;;4.60;2.70;;;;;;;29.08;44.64;100968.06;7394834;19;20979;-77
2023/09/09 09:55:46;;;;;;;5.22;3.03;;;;;;;29.13;45.74;100967.22;7390586;19;20379;-78
2023/09/09 09:58:13;;;;;;;4.47;2.80;;;;;;;29.23;44.25;100965.16;7392797;19;20379;-77
2023/09/09 10:00:41;;;;;;;5.28;2.78;;;;;;;29.25;44.24;100965.66;7395084;19;20772;-78
2023/09/09 10:03:10;;;;;;;6.78;3.08;;;;;;;29.37;43.79;100972.59;7377549;19;20341;-78
2023/09/09 10:05:38;;;;;;;6.55;2.80;;;;;;;29.44;43.50;100967.59;7387294;19;20372;-78
2023/09/09 10:08:19;;;;;;;4.17;2.60;;;;;;;29.45;43.10;100964.56;7387875;19;20364;-78
2023/09/09 10:10:57;;;;;;;4.23;2.53;;;;;;;29.43;40.93;100963.22;7385005;19;20507;-78
2023/09/09 10:13:36;;;;;;;3.97;2.70;;;;;;;29.52;41.64;100969.69;7385595;19;20885;-78
2023/09/09 10:16:06;;;;;;;5.18;2.80;;;;;;;29.59;41.05;100964.63;7394033;19;20872;-78
2023/09/09 10:18:36;;;;;;;5.13;2.70;;;;;;;29.66;40.85;100967.81;7389807;19;20428;-78
2023/09/09 10:21:06;;;;;;;5.07;2.72;;;;;;;29.70;40.49;100959.06;7386470;19;20379;-78
2023/09/09 10:23:33;;;;;;;4.03;2.75;;;;;;;29.76;39.67;100953.19;7389658;19;20357;-78
2023/09/09 10:26:01;;;;;;;3.30;2.33;;;;;;;29.83;40.22;100956.34;7394349;19;20746;-78
2023/09/09 10:28:29;;;;;;;3.22;2.60;;;;;;;29.89;40.32;100962.56;7390934;19;20355;-78
2023/09/09 10:31:00;;;;;;;3.50;2.50;;;;;;;29.94;40.08;100958.94;7389228;19;20770;-79
2023/09/09 10:33:28;;;;;;;4.18;2.78;;;;;;;30.07;40.31;100953.50;7389350;19;20444;-78
2023/09/09 10:35:57;;;;;;;5.07;2.67;;;;;;;30.17;39.54;100962.66;7388987;19;20755;-79
2023/09/09 10:38:26;;;;;;;3.60;2.40;;;;;;;30.19;36.95;100949.47;7381866;19;20360;-78
2023/09/09 10:40:53;;;;;;;7.50;2.38;;;;;;;30.28;36.60;100953.13;7391890;19;20364;-79
2023/09/09 10:43:20;;;;;;;4.28;2.85;;;;;;;30.34;37.38;100954.69;7392122;19;20444;-79
2023/09/09 10:45:50;;;;;;;4.95;2.45;;;;;;;30.39;36.60;100946.41;7393608;19;20371;-78
2023/09/09 10:48:21;;;;;;;5.23;2.40;;;;;;;30.40;35.49;100956.22;7394906;19;20390;-78
2023/09/09 10:50:53;;;;;;;4.15;2.40;;;;;;;30.44;35.71;100945.50;7384218;19;20351;-78
2023/09/09 10:53:26;;;;;;;3.20;2.42;;;;;;;30.51;36.11;100950.56;7387136;19;20357;-78
2023/09/09 10:55:59;;;;;;;3.15;2.47;;;;;;;30.63;36.56;100953.63;7392553;19;20373;-78
2023/09/09 10:58:37;;;;;;;7.50;2.92;;;;;;;30.72;35.93;100949.03;7391488;19;20382;-78
2023/09/09 11:01:08;;;;;;;3.25;2.58;;;;;;;30.80;36.47;100948.34;7389161;19;20369;-78
2023/09/09 11:03:44;;;;;;;4.43;2.22;;;;;;;30.92;36.45;100950.56;7388119;19;20371;-78
2023/09/09 11:06:33;;;;;;;5.45;2.72;;;;;;;31.00;36.16;100949.06;7389918;19;20420;-78
2023/09/09 11:09:02;;;;;;;5.72;2.40;;;;;;;31.10;35.27;100946.09;7387643;19;20482;-78
2023/09/09 11:11:35;;;;;;;3.75;2.67;;;;;;;31.08;34.41;100946.41;7389756;19;20348;-79
2023/09/09 11:14:06;;;;;;;5.83;2.60;;;;;;;31.13;34.45;100942.72;7387842;19;20353;-80
2023/09/09 11:16:40;;;;;;;3.53;2.55;;;;;;;31.15;35.09;100942.44;7391398;19;20366;-79
2023/09/09 11:19:11;;;;;;;3.63;2.40;;;;;;;31.28;34.72;100949.78;7391728;19;20360;-79
2023/09/09 11:21:41;;;;;;;4.65;2.50;;;;;;;31.38;34.46;100949.56;7393402;19;20364;-79
2023/09/09 11:24:08;;;;;;;3.78;2.42;;;;;;;31.45;33.84;100960.13;7391918;19;20364;-79
2023/09/09 11:26:43;;;;;;;3.90;2.40;;;;;;;31.45;33.49;100951.91;7390122;19;20353;-79
2023/09/09 11:29:11;;;;;;;3.88;2.53;;;;;;;31.65;34.55;100945.16;7388255;19;20432;-79